createdAt,value
2019-02-14T00:01:53.692Z,17.47
2019-02-14T00:04:24.062Z,17.60
2019-02-14T00:06:53.964Z,17.43
2019-02-14T00:09:24.178Z,18.07
2019-02-14T00:11:54.014Z,17.93
2019-02-14T00:14:23.745Z,17.17
2019-02-14T00:16:55.082Z,17.37
2019-02-14T00:19:25.030Z,18.17
2019-02-14T00:21:55.814Z,17.90
2019-02-14T00:24:26.224Z,19.00
2019-02-14T00:26:57.658Z,18.23
2019-02-14T00:29:27.249Z,17.83
2019-02-14T00:31:56.084Z,17.00
2019-02-14T00:34:27.609Z,17.53
2019-02-14T00:36:58.673Z,18.77
2019-02-14T00:39:28.507Z,16.43
2019-02-14T00:41:58.722Z,16.80
2019-02-14T00:44:29.217Z,17.67
2019-02-14T00:46:59.004Z,18.20
2019-02-14T00:49:27.574Z,19.93
2019-02-14T00:51:58.114Z,19.00
2019-02-14T00:54:27.658Z,18.53
2019-02-14T00:56:57.862Z,18.53
2019-02-14T00:59:26.939Z,18.07
2019-02-14T01:01:56.406Z,19.30
2019-02-14T01:04:24.894Z,17.90
2019-02-14T01:06:55.706Z,18.50
2019-02-14T01:09:24.209Z,18.93
2019-02-14T01:11:56.326Z,17.73
2019-02-14T01:14:26.445Z,20.03
2019-02-14T01:16:57.402Z,19.63
2019-02-14T01:19:27.576Z,19.80
2019-02-14T01:21:57.338Z,19.40
2019-02-14T01:24:25.902Z,20.10
2019-02-14T01:26:54.421Z,20.60
2019-02-14T01:29:24.546Z,19.50
2019-02-14T01:31:54.948Z,20.00
2019-02-14T01:34:24.700Z,20.00
2019-02-14T01:36:55.117Z,18.17
2019-02-14T01:39:24.940Z,18.77
2019-02-14T01:41:57.798Z,19.03
2019-02-14T01:44:30.603Z,19.67
2019-02-14T01:47:01.431Z,18.77
2019-02-14T01:49:31.256Z,19.57
2019-02-14T01:52:01.374Z,19.77
2019-02-14T01:54:31.705Z,19.63
2019-02-14T01:57:00.289Z,19.77
2019-02-14T01:59:30.082Z,21.40
2019-02-14T02:02:00.406Z,19.17
2019-02-14T02:04:29.719Z,20.43
2019-02-14T02:07:00.631Z,18.93
2019-02-14T02:09:29.482Z,19.77
2019-02-14T02:11:58.070Z,18.47
2019-02-14T02:14:26.566Z,20.47
2019-02-14T02:16:55.645Z,19.43
2019-02-14T02:19:26.003Z,21.00
2019-02-14T02:21:54.769Z,19.73
2019-02-14T02:24:24.419Z,19.50
2019-02-14T02:26:53.247Z,20.23
2019-02-14T02:29:23.674Z,20.60
2019-02-14T02:31:52.752Z,21.43
2019-02-14T02:34:21.657Z,19.67
2019-02-14T02:36:51.432Z,19.43
2019-02-14T02:39:21.252Z,21.17
2019-02-14T02:41:50.103Z,19.73
2019-02-14T02:44:18.663Z,20.33
2019-02-14T02:46:49.438Z,20.80
2019-02-14T02:49:19.330Z,21.33
2019-02-14T02:51:49.454Z,20.00
2019-02-14T02:54:19.628Z,20.20
2019-02-14T02:56:49.847Z,19.87
2019-02-14T02:59:18.414Z,19.57
2019-02-14T03:01:47.000Z,20.47
2019-02-14T03:04:18.138Z,20.20
2019-02-14T03:06:49.618Z,21.00
2019-02-14T03:09:18.114Z,21.93
2019-02-14T03:11:48.270Z,20.80
2019-02-14T03:14:18.042Z,20.23
2019-02-14T03:16:48.163Z,20.77
2019-02-14T03:19:16.740Z,20.07
2019-02-14T03:21:45.313Z,19.73
2019-02-14T03:24:13.982Z,19.80
2019-02-14T03:26:43.057Z,20.07
2019-02-14T03:29:11.558Z,20.20
2019-02-14T03:31:43.373Z,21.07
2019-02-14T03:34:15.616Z,19.87
2019-02-14T03:36:47.115Z,19.13
2019-02-14T03:39:17.248Z,21.17
2019-02-14T03:41:48.808Z,18.83
2019-02-14T03:44:19.186Z,19.53
2019-02-14T03:46:47.766Z,20.33
2019-02-14T03:49:16.333Z,18.80
2019-02-14T03:51:46.940Z,20.00
2019-02-14T03:54:16.519Z,18.93
2019-02-14T03:56:48.179Z,19.07
2019-02-14T03:59:16.743Z,20.40
2019-02-14T04:01:46.303Z,20.30
2019-02-14T04:04:15.602Z,20.30
2019-02-14T04:06:44.194Z,19.37
2019-02-14T04:09:12.761Z,21.07
2019-02-14T04:11:42.324Z,19.67
2019-02-14T04:14:12.186Z,20.93
2019-02-14T04:16:42.282Z,19.93
2019-02-14T04:19:13.232Z,19.67
2019-02-14T04:21:41.736Z,18.27
2019-02-14T04:24:10.234Z,19.83
2019-02-14T04:26:38.810Z,19.20
2019-02-14T04:29:09.199Z,19.57
2019-02-14T04:31:39.644Z,21.07
2019-02-14T04:34:09.558Z,20.13
2019-02-14T04:36:40.946Z,19.20
2019-02-14T04:39:12.849Z,19.33
2019-02-14T04:41:41.979Z,19.77
2019-02-14T04:44:11.039Z,20.00
2019-02-14T04:46:41.033Z,19.67
2019-02-14T04:49:09.518Z,20.87
2019-02-14T04:51:39.153Z,20.13
2019-02-14T04:54:08.002Z,20.17
2019-02-14T04:56:38.830Z,19.80
2019-02-14T04:59:07.342Z,20.10
2019-02-14T05:01:35.919Z,19.87
2019-02-14T05:04:04.767Z,19.03
2019-02-14T05:06:33.360Z,20.87
2019-02-14T05:09:03.661Z,20.00
2019-02-14T05:11:32.482Z,19.67
2019-02-14T05:14:02.597Z,20.47
2019-02-14T05:16:31.086Z,19.17
2019-02-14T05:19:00.161Z,20.70
2019-02-14T05:21:28.738Z,20.00
2019-02-14T05:23:58.859Z,20.53
2019-02-14T05:26:28.105Z,20.97
2019-02-14T05:28:56.703Z,19.43
2019-02-14T05:31:26.735Z,19.07
2019-02-14T05:33:57.213Z,20.13
2019-02-14T05:36:26.111Z,19.27
2019-02-14T05:38:58.574Z,20.73
2019-02-14T05:41:28.702Z,19.60
2019-02-14T05:43:58.646Z,21.40
2019-02-14T05:46:27.409Z,19.10
2019-02-14T05:48:58.832Z,20.63
2019-02-14T05:51:29.280Z,20.17
2019-02-14T05:53:59.539Z,21.50
2019-02-14T05:56:28.300Z,20.30
2019-02-14T05:58:57.530Z,21.17
2019-02-14T06:01:28.090Z,18.80
2019-02-14T06:04:00.325Z,18.37
2019-02-14T06:06:29.145Z,19.30
2019-02-14T06:08:57.917Z,19.77
2019-02-14T06:11:26.477Z,19.57
2019-02-14T06:13:56.694Z,19.00
2019-02-14T06:16:26.801Z,19.83
2019-02-14T06:18:57.098Z,18.93
2019-02-14T06:21:28.432Z,19.20
2019-02-14T06:23:58.641Z,18.10
2019-02-14T06:26:27.209Z,18.57
2019-02-14T06:28:56.393Z,18.67
2019-02-14T06:31:24.895Z,18.57
2019-02-14T06:33:56.434Z,17.67
2019-02-14T06:36:26.533Z,18.33
2019-02-14T06:38:56.677Z,18.93
2019-02-14T06:41:25.240Z,18.90
2019-02-14T06:43:53.847Z,19.23
2019-02-14T06:46:23.670Z,18.47
2019-02-14T06:48:55.541Z,18.07
2019-02-14T06:51:25.615Z,17.87
2019-02-14T06:53:54.144Z,19.23
2019-02-14T06:56:23.312Z,17.97
2019-02-14T06:58:52.175Z,18.37
2019-02-14T07:01:20.738Z,18.37
2019-02-14T07:03:49.249Z,17.70
2019-02-14T07:06:17.822Z,17.13
2019-02-14T07:08:46.409Z,17.10
2019-02-14T07:11:15.469Z,16.17
2019-02-14T07:13:45.830Z,17.30
2019-02-14T07:16:14.850Z,16.80
2019-02-14T07:18:43.380Z,17.50
2019-02-14T07:21:13.528Z,16.00
2019-02-14T07:23:42.106Z,16.07
2019-02-14T07:26:11.160Z,16.50
2019-02-14T07:28:40.940Z,16.33
2019-02-14T07:31:10.061Z,17.30
2019-02-14T07:33:40.753Z,16.67
2019-02-14T07:36:11.392Z,17.40
2019-02-14T07:38:39.974Z,16.03
2019-02-14T07:41:08.778Z,16.97
2019-02-14T07:43:38.850Z,16.57
2019-02-14T07:46:09.467Z,17.20
2019-02-14T07:48:38.316Z,18.07
2019-02-14T07:51:09.679Z,18.67
2019-02-14T07:53:41.096Z,16.77
2019-02-14T07:56:09.673Z,17.83
2019-02-14T07:58:38.229Z,16.33
2019-02-14T08:01:08.275Z,15.03
2019-02-14T08:03:40.265Z,16.77
2019-02-14T08:06:09.007Z,15.17
2019-02-14T08:08:37.928Z,15.47
2019-02-14T08:11:06.511Z,14.97
2019-02-14T08:13:35.071Z,14.37
2019-02-14T08:16:03.650Z,14.17
2019-02-14T08:18:32.228Z,13.13
2019-02-14T08:21:00.906Z,15.03
2019-02-14T08:23:29.394Z,13.23
2019-02-14T08:25:57.905Z,13.47
2019-02-14T08:28:26.395Z,13.27
2019-02-14T08:30:54.983Z,12.60
2019-02-14T08:33:23.546Z,12.50
2019-02-14T08:35:52.140Z,12.67
2019-02-14T08:38:20.703Z,11.90
2019-02-14T08:40:49.218Z,11.60
2019-02-14T08:43:17.707Z,12.30
2019-02-14T08:45:46.291Z,11.37
2019-02-14T08:48:14.886Z,12.97
2019-02-14T08:50:43.457Z,12.80
2019-02-14T08:53:12.031Z,11.67
2019-02-14T08:55:40.622Z,11.97
2019-02-14T08:58:09.183Z,12.57
2019-02-14T09:00:37.839Z,12.80
2019-02-14T09:03:06.328Z,13.40
2019-02-14T09:05:34.910Z,15.30
2019-02-14T09:08:03.484Z,10.27
2019-02-14T09:10:32.076Z,12.27
2019-02-14T09:13:00.811Z,10.03
2019-02-14T09:15:29.382Z,12.17
2019-02-14T09:17:57.964Z,9.97
2019-02-14T09:20:27.958Z,10.67
2019-02-14T09:22:56.518Z,10.07
2019-02-14T09:25:25.177Z,9.17
2019-02-14T09:27:53.737Z,9.97
2019-02-14T09:30:22.670Z,11.17
2019-02-14T09:32:51.422Z,10.07
2019-02-14T09:35:19.943Z,9.43
2019-02-14T09:37:48.448Z,8.97
2019-02-14T09:40:18.076Z,10.27
2019-02-14T09:42:46.633Z,9.27
2019-02-14T09:45:15.295Z,9.13
2019-02-14T09:47:43.922Z,9.03
2019-02-14T09:50:13.774Z,9.17
2019-02-14T09:52:42.396Z,9.17
2019-02-14T09:55:13.190Z,9.27
2019-02-14T09:57:41.757Z,8.47
2019-02-14T10:00:12.789Z,9.00
2019-02-14T10:02:41.347Z,9.20
2019-02-14T10:05:10.570Z,8.33
2019-02-14T10:07:39.057Z,7.93
2019-02-14T10:10:11.050Z,8.00
2019-02-14T10:12:39.886Z,7.10
2019-02-14T10:15:09.997Z,7.87
2019-02-14T10:17:38.556Z,7.10
2019-02-14T10:20:15.426Z,7.10
2019-02-14T10:22:43.997Z,6.20
2019-02-14T10:25:13.408Z,7.20
2019-02-14T10:27:41.966Z,8.03
2019-02-14T10:30:16.206Z,7.50
2019-02-14T10:32:44.778Z,7.50
2019-02-14T10:35:13.418Z,7.50
2019-02-14T10:37:42.079Z,7.43
2019-02-14T10:40:14.734Z,7.37
2019-02-14T10:42:43.372Z,7.87
2019-02-14T10:45:15.714Z,7.90
2019-02-14T10:47:44.223Z,7.53
2019-02-14T10:50:12.858Z,7.07
2019-02-14T10:52:41.457Z,7.57
2019-02-14T10:55:12.103Z,7.53
2019-02-14T10:57:40.695Z,7.27
2019-02-14T11:00:23.270Z,6.57
2019-02-14T11:02:51.974Z,7.00
2019-02-14T11:05:20.799Z,7.23
2019-02-14T11:07:49.454Z,6.83
2019-02-14T11:10:18.154Z,6.57
2019-02-14T11:12:46.807Z,7.57
2019-02-14T11:15:17.974Z,7.87
2019-02-14T11:17:48.424Z,7.33
2019-02-14T11:20:17.893Z,6.73
2019-02-14T11:22:48.815Z,7.70
2019-02-14T11:25:25.518Z,10.17
2019-02-14T11:27:54.099Z,7.70
2019-02-14T11:30:22.648Z,6.90
2019-02-14T11:32:51.236Z,6.40
2019-02-14T11:35:19.808Z,7.80
2019-02-14T11:37:48.385Z,7.13
2019-02-14T11:40:16.872Z,5.83
2019-02-14T11:42:45.463Z,11.37
2019-02-14T11:45:16.534Z,11.87
2019-02-14T11:47:45.042Z,8.03
2019-02-14T11:50:13.661Z,9.03
2019-02-14T11:52:42.256Z,8.60
2019-02-14T11:55:11.453Z,6.50
2019-02-14T11:57:40.138Z,6.10
2019-02-14T12:00:15.935Z,7.00
2019-02-14T12:02:44.526Z,5.13
2019-02-14T12:05:13.089Z,6.93
2019-02-14T12:07:41.673Z,5.47
2019-02-14T12:10:13.815Z,6.17
2019-02-14T12:12:42.530Z,5.20
2019-02-14T12:15:13.001Z,5.50
2019-02-14T12:17:41.721Z,4.73
2019-02-14T12:20:13.280Z,5.63
2019-02-14T12:22:46.882Z,4.80
2019-02-14T12:25:28.943Z,4.77
2019-02-14T12:27:57.532Z,5.00
2019-02-14T12:30:26.153Z,3.93
2019-02-14T12:32:54.750Z,4.60
2019-02-14T12:35:23.316Z,4.67
2019-02-14T12:37:51.913Z,4.17
2019-02-14T12:40:20.459Z,4.17
2019-02-14T12:42:49.056Z,4.10
2019-02-14T12:45:24.217Z,4.20
2019-02-14T12:47:53.079Z,4.43
2019-02-14T12:50:21.657Z,4.53
2019-02-14T12:52:50.241Z,3.70
2019-02-14T12:55:18.792Z,4.83
2019-02-14T12:57:48.086Z,4.73
2019-02-14T13:00:24.328Z,3.50
2019-02-14T13:02:52.971Z,3.83
2019-02-14T13:05:21.605Z,4.23
2019-02-14T13:07:50.267Z,3.77
2019-02-14T13:10:19.368Z,3.70
2019-02-14T13:12:48.018Z,3.97
2019-02-14T13:15:19.037Z,4.10
2019-02-14T13:17:47.629Z,4.10
2019-02-14T13:20:16.265Z,4.13
2019-02-14T13:22:44.858Z,3.87
2019-02-14T13:25:14.229Z,3.70
2019-02-14T13:27:42.743Z,4.13
2019-02-14T13:30:14.338Z,3.20
2019-02-14T13:32:42.921Z,3.43
2019-02-14T13:35:11.603Z,3.10
2019-02-14T13:37:40.610Z,2.87
2019-02-14T13:40:09.597Z,3.27
2019-02-14T13:42:38.265Z,3.30
2019-02-14T13:45:10.067Z,3.60
2019-02-14T13:47:38.661Z,3.80
2019-02-14T13:50:09.769Z,3.60
2019-02-14T13:52:38.354Z,3.87
2019-02-14T13:55:08.921Z,4.10
2019-02-14T13:57:37.495Z,4.37
2019-02-14T14:00:12.381Z,3.60
2019-02-14T14:02:40.973Z,4.17
2019-02-14T14:05:09.541Z,5.20
2019-02-14T14:07:40.284Z,4.33
2019-02-14T14:10:09.782Z,4.23
2019-02-14T14:12:38.348Z,4.17
2019-02-14T14:15:09.163Z,4.10
2019-02-14T14:17:37.726Z,3.97
2019-02-14T14:20:07.750Z,3.73
2019-02-14T14:22:36.317Z,3.63
2019-02-14T14:25:06.778Z,4.00
2019-02-14T14:27:35.386Z,5.47
2019-02-14T14:30:06.577Z,3.87
2019-02-14T14:32:35.149Z,3.73
2019-02-14T14:35:04.313Z,4.30
2019-02-14T14:37:32.874Z,4.30
2019-02-14T14:40:01.464Z,4.33
2019-02-14T14:42:31.670Z,4.27
2019-02-14T14:45:00.351Z,5.63
2019-02-14T14:47:28.926Z,4.50
2019-02-14T14:49:57.510Z,4.17
2019-02-14T14:52:26.358Z,6.57
2019-02-14T14:54:54.933Z,8.50
2019-02-14T14:57:23.422Z,7.20
2019-02-14T14:59:51.934Z,5.70
2019-02-14T15:02:20.571Z,5.50
2019-02-14T15:04:49.158Z,4.53
2019-02-14T15:07:17.717Z,4.10
2019-02-14T15:09:46.979Z,4.60
2019-02-14T15:12:15.778Z,5.00
2019-02-14T15:14:44.949Z,4.97
2019-02-14T15:17:13.519Z,3.87
2019-02-14T15:19:42.681Z,6.07
2019-02-14T15:22:11.245Z,4.57
2019-02-14T15:24:39.842Z,3.80
2019-02-14T15:27:08.330Z,3.90
2019-02-14T15:29:36.925Z,3.70
2019-02-14T15:32:05.506Z,3.80
2019-02-14T15:34:34.013Z,3.87
2019-02-14T15:37:02.489Z,4.40
2019-02-14T15:39:31.010Z,4.20
2019-02-14T15:41:59.561Z,4.30
2019-02-14T15:44:29.965Z,4.50
2019-02-14T15:47:00.228Z,4.40
2019-02-14T15:49:28.823Z,4.17
2019-02-14T15:51:57.385Z,4.70
2019-02-14T15:54:25.975Z,4.37
2019-02-14T15:56:56.568Z,4.50
2019-02-14T15:59:24.779Z,4.83
2019-02-14T16:01:53.411Z,6.00
2019-02-14T16:04:21.917Z,5.60
2019-02-14T16:06:52.258Z,5.00
2019-02-14T16:09:20.630Z,6.27
2019-02-14T16:11:49.140Z,6.90
2019-02-14T16:14:19.171Z,5.43
2019-02-14T16:16:47.934Z,6.00
2019-02-14T16:19:16.531Z,5.43
2019-02-14T16:21:45.088Z,6.00
2019-02-14T16:24:14.422Z,5.77
2019-02-14T16:26:43.921Z,6.17
2019-02-14T16:29:12.411Z,6.90
2019-02-14T16:31:44.889Z,6.63
2019-02-14T16:34:13.431Z,6.80
2019-02-14T16:36:42.010Z,7.00
2019-02-14T16:39:10.577Z,7.20
2019-02-14T16:41:39.157Z,6.20
2019-02-14T16:44:07.711Z,6.00
2019-02-14T16:46:36.281Z,5.43
2019-02-14T16:49:04.842Z,7.13
2019-02-14T16:51:33.356Z,5.67
2019-02-14T16:54:01.917Z,5.97
2019-02-14T16:56:30.439Z,6.33
2019-02-14T16:58:58.997Z,6.80
2019-02-14T17:01:27.569Z,6.37
2019-02-14T17:03:56.131Z,6.90
2019-02-14T17:06:24.714Z,6.77
2019-02-14T17:08:53.274Z,5.87
2019-02-14T17:11:21.787Z,6.00
2019-02-14T17:13:50.339Z,6.37
2019-02-14T17:16:18.922Z,6.50
2019-02-14T17:18:48.241Z,6.07
2019-02-14T17:21:16.817Z,7.10
2019-02-14T17:23:45.305Z,6.43
2019-02-14T17:26:13.886Z,6.80
2019-02-14T17:28:42.437Z,6.60
2019-02-14T17:31:11.011Z,7.80
2019-02-14T17:33:39.525Z,7.93
2019-02-14T17:36:08.090Z,7.40
2019-02-14T17:38:36.583Z,8.30
2019-02-14T17:41:05.161Z,8.47
2019-02-14T17:43:33.722Z,7.70
2019-02-14T17:46:02.298Z,8.50
2019-02-14T17:48:30.777Z,8.30
2019-02-14T17:50:59.287Z,8.37
2019-02-14T17:53:27.845Z,8.63
2019-02-14T17:55:56.338Z,9.37
2019-02-14T17:58:25.005Z,8.60
2019-02-14T18:00:53.590Z,9.47
2019-02-14T18:03:22.155Z,8.93
2019-02-14T18:05:50.717Z,8.27
2019-02-14T18:08:19.303Z,9.30
2019-02-14T18:10:54.750Z,8.73
2019-02-14T18:13:18.085Z,9.60
2019-02-14T18:15:46.576Z,8.90
2019-02-14T18:18:15.160Z,9.63
2019-02-14T18:20:43.725Z,10.80
2019-02-14T18:23:12.310Z,10.17
2019-02-14T18:25:40.877Z,10.60
2019-02-14T18:28:09.453Z,9.60
2019-02-14T18:30:37.955Z,9.20
2019-02-14T18:33:06.529Z,10.33
2019-02-14T18:35:35.026Z,11.33
2019-02-14T18:38:03.610Z,11.50
2019-02-14T18:40:32.174Z,11.23
2019-02-14T18:43:00.686Z,13.60
2019-02-14T18:45:29.183Z,12.07
2019-02-14T18:47:57.769Z,12.07
2019-02-14T18:50:26.331Z,10.77
2019-02-14T18:52:54.844Z,10.13
2019-02-14T18:55:23.410Z,10.43
2019-02-14T18:57:51.998Z,10.77
2019-02-14T19:00:20.958Z,9.40
2019-02-14T19:02:49.538Z,9.50
2019-02-14T19:05:18.934Z,9.00
2019-02-14T19:07:47.454Z,8.30
2019-02-14T19:10:18.783Z,8.90
2019-02-14T19:12:47.360Z,7.63
2019-02-14T19:15:15.998Z,8.10
2019-02-14T19:17:44.577Z,7.97
2019-02-14T19:20:13.777Z,7.40
2019-02-14T19:22:42.636Z,7.43
2019-02-14T19:25:12.081Z,7.47
2019-02-14T19:27:41.566Z,7.83
2019-02-14T19:30:12.148Z,7.27
2019-02-14T19:32:40.711Z,7.93
2019-02-14T19:35:09.627Z,7.63
2019-02-14T19:37:38.719Z,8.03
2019-02-14T19:40:08.529Z,7.40
2019-02-14T19:42:38.347Z,8.07
2019-02-14T19:45:09.324Z,8.20
2019-02-14T19:47:37.902Z,7.70
2019-02-14T19:50:10.883Z,8.17
2019-02-14T19:52:39.467Z,8.43
2019-02-14T19:55:09.753Z,7.60
2019-02-14T19:57:38.255Z,7.73
2019-02-14T20:00:10.184Z,7.90
2019-02-14T20:02:45.333Z,7.40
2019-02-14T20:05:14.249Z,8.60
2019-02-14T20:07:42.822Z,8.30
2019-02-14T20:10:13.698Z,8.57
2019-02-14T20:12:42.515Z,8.63
2019-02-14T20:15:19.547Z,8.87
2019-02-14T20:17:48.207Z,9.07
2019-02-14T20:20:16.949Z,9.00
2019-02-14T20:22:45.462Z,8.40
2019-02-14T20:25:17.516Z,8.53
2019-02-14T20:27:46.169Z,9.00
2019-02-14T20:30:14.660Z,9.07
2019-02-14T20:32:43.224Z,9.13
2019-02-14T20:35:11.878Z,8.90
2019-02-14T20:37:40.525Z,9.90
2019-02-14T20:40:10.327Z,10.40
2019-02-14T20:42:39.220Z,9.87
2019-02-14T20:45:11.086Z,9.90
2019-02-14T20:47:39.835Z,10.03
2019-02-14T20:50:13.389Z,10.73
2019-02-14T20:52:41.888Z,9.03
2019-02-14T20:55:15.829Z,10.40
2019-02-14T20:57:44.795Z,10.53
2019-02-14T21:00:15.855Z,9.97
2019-02-14T21:02:44.707Z,10.33
2019-02-14T21:05:14.945Z,10.07
2019-02-14T21:07:43.500Z,10.27
2019-02-14T21:10:12.137Z,10.43
2019-02-14T21:12:40.773Z,10.63
2019-02-14T21:15:11.683Z,9.73
2019-02-14T21:17:40.245Z,9.60
2019-02-14T21:20:11.145Z,9.43
2019-02-14T21:22:39.679Z,10.67
2019-02-14T21:25:09.094Z,10.00
2019-02-14T21:27:37.663Z,10.63
2019-02-14T21:30:12.227Z,10.23
2019-02-14T21:32:40.797Z,10.77
2019-02-14T21:35:09.461Z,10.13
2019-02-14T21:37:39.222Z,10.37
2019-02-14T21:40:14.198Z,10.10
2019-02-14T21:42:42.765Z,10.83
2019-02-14T21:45:12.982Z,9.47
2019-02-14T21:47:43.959Z,10.73
2019-02-14T21:50:13.868Z,11.07
2019-02-14T21:52:42.580Z,10.63
2019-02-14T21:55:13.085Z,10.60
2019-02-14T21:57:41.638Z,11.33
2019-02-14T22:00:19.271Z,11.20
2019-02-14T22:02:47.853Z,11.30
2019-02-14T22:05:16.785Z,11.37
2019-02-14T22:07:45.516Z,10.90
2019-02-14T22:10:14.250Z,11.57
2019-02-14T22:12:43.715Z,11.30
2019-02-14T22:15:18.312Z,11.47
2019-02-14T22:17:46.894Z,11.93
2019-02-14T22:20:15.445Z,11.10
2019-02-14T22:22:44.091Z,11.47
2019-02-14T22:25:12.743Z,12.33
2019-02-14T22:27:41.762Z,11.80
2019-02-14T22:30:13.355Z,11.70
2019-02-14T22:32:43.380Z,11.90
2019-02-14T22:35:12.029Z,12.83
2019-02-14T22:37:42.135Z,12.10
2019-02-14T22:40:11.994Z,12.80
2019-02-14T22:42:47.022Z,12.90
2019-02-14T22:45:13.736Z,13.53
2019-02-14T22:47:43.477Z,13.00
2019-02-14T22:50:12.589Z,12.20
2019-02-14T22:52:41.077Z,12.40
2019-02-14T22:55:12.098Z,12.23
2019-02-14T22:57:40.737Z,12.37
2019-02-14T23:00:28.621Z,11.83
2019-02-14T23:02:57.186Z,13.13
2019-02-14T23:05:25.839Z,13.13
2019-02-14T23:07:54.412Z,13.37
2019-02-14T23:10:24.051Z,12.57
2019-02-14T23:12:55.707Z,13.63
2019-02-14T23:15:23.009Z,13.37
2019-02-14T23:17:51.770Z,14.23
2019-02-14T23:20:20.282Z,14.90
2019-02-14T23:22:48.770Z,15.93
2019-02-14T23:25:17.532Z,14.77
2019-02-14T23:27:46.093Z,13.93
2019-02-14T23:30:14.611Z,13.50
2019-02-14T23:32:43.165Z,12.80
2019-02-14T23:35:13.101Z,14.13
2019-02-14T23:37:41.632Z,12.80
2019-02-14T23:40:10.361Z,13.63
2019-02-14T23:42:38.923Z,12.67
2019-02-14T23:45:10.926Z,13.13
2019-02-14T23:47:39.501Z,12.57
2019-02-14T23:50:11.542Z,12.50
2019-02-14T23:52:40.118Z,13.60
2019-02-14T23:55:09.041Z,12.10
2019-02-14T23:57:37.786Z,12.10
